sensor_id;sensor_type;location;lat;lon;timestamp;pressure;altitude;pressure_sealevel;temperature;humidity
13593;BME280;6867;50.998;4.250;2022-08-16T00:01:46;100376.94;;;21.12;72.79
13593;BME280;6867;50.998;4.250;2022-08-16T00:04:15;100382.44;;;21.07;73.21
13593;BME280;6867;50.998;4.250;2022-08-16T00:06:42;100392.00;;;21.04;73.46
13593;BME280;6867;50.998;4.250;2022-08-16T00:09:09;100392.00;;;21.04;73.76
13593;BME280;6867;50.998;4.250;2022-08-16T00:11:36;100393.69;;;21.00;74.00
13593;BME280;6867;50.998;4.250;2022-08-16T00:14:05;100386.66;;;20.89;74.41
13593;BME280;6867;50.998;4.250;2022-08-16T00:16:32;100385.34;;;20.81;74.28
13593;BME280;6867;50.998;4.250;2022-08-16T00:18:59;100391.91;;;20.80;74.57
13593;BME280;6867;50.998;4.250;2022-08-16T00:21:27;100390.19;;;20.89;74.32
13593;BME280;6867;50.998;4.250;2022-08-16T00:23:54;100386.72;;;20.84;74.22
13593;BME280;6867;50.998;4.250;2022-08-16T00:26:20;100382.41;;;20.78;74.33
13593;BME280;6867;50.998;4.250;2022-08-16T00:28:47;100380.50;;;20.73;74.49
13593;BME280;6867;50.998;4.250;2022-08-16T00:31:14;100391.47;;;20.68;75.06
13593;BME280;6867;50.998;4.250;2022-08-16T00:33:41;100389.59;;;20.63;75.40
13593;BME280;6867;50.998;4.250;2022-08-16T00:36:08;100393.19;;;20.59;75.61
13593;BME280;6867;50.998;4.250;2022-08-16T00:38:36;100374.56;;;20.66;75.20
13593;BME280;6867;50.998;4.250;2022-08-16T00:41:03;100372.44;;;20.58;75.32
13593;BME280;6867;50.998;4.250;2022-08-16T00:43:33;100376.50;;;20.60;75.88
13593;BME280;6867;50.998;4.250;2022-08-16T00:46:06;100375.69;;;20.60;75.90
13593;BME280;6867;50.998;4.250;2022-08-16T00:48:35;100376.03;;;20.53;76.25
13593;BME280;6867;50.998;4.250;2022-08-16T00:51:03;100382.31;;;20.54;76.24
13593;BME280;6867;50.998;4.250;2022-08-16T00:53:30;100379.63;;;20.49;76.81
13593;BME280;6867;50.998;4.250;2022-08-16T00:56:02;100382.56;;;20.47;77.11
13593;BME280;6867;50.998;4.250;2022-08-16T00:58:32;100371.97;;;20.46;76.69
13593;BME280;6867;50.998;4.250;2022-08-16T01:00:59;100368.47;;;20.40;76.48
13593;BME280;6867;50.998;4.250;2022-08-16T01:03:27;100370.38;;;20.34;76.75
13593;BME280;6867;50.998;4.250;2022-08-16T01:05:54;100365.78;;;20.30;76.57
13593;BME280;6867;50.998;4.250;2022-08-16T01:08:22;100368.22;;;20.31;76.95
13593;BME280;6867;50.998;4.250;2022-08-16T01:10:50;100368.47;;;20.35;76.84
13593;BME280;6867;50.998;4.250;2022-08-16T01:13:21;100363.84;;;20.30;77.06
13593;BME280;6867;50.998;4.250;2022-08-16T01:15:51;100364.66;;;20.36;76.79
13593;BME280;6867;50.998;4.250;2022-08-16T01:18:21;100362.75;;;20.36;76.69
13593;BME280;6867;50.998;4.250;2022-08-16T01:21:09;100371.44;;;20.38;76.88
13593;BME280;6867;50.998;4.250;2022-08-16T01:23:53;100366.53;;;20.40;76.76
13593;BME280;6867;50.998;4.250;2022-08-16T01:26:22;100375.78;;;20.45;77.00
13593;BME280;6867;50.998;4.250;2022-08-16T01:28:50;100376.88;;;20.44;77.07
13593;BME280;6867;50.998;4.250;2022-08-16T01:31:18;100377.97;;;20.43;77.41
13593;BME280;6867;50.998;4.250;2022-08-16T01:33:45;100391.91;;;20.41;77.94
13593;BME280;6867;50.998;4.250;2022-08-16T01:36:12;100386.19;;;20.37;77.88
13593;BME280;6867;50.998;4.250;2022-08-16T01:38:41;100386.47;;;20.36;78.30
13593;BME280;6867;50.998;4.250;2022-08-16T01:41:13;100385.63;;;20.35;78.41
13593;BME280;6867;50.998;4.250;2022-08-16T01:43:43;100383.97;;;20.39;78.42
13593;BME280;6867;50.998;4.250;2022-08-16T01:46:19;100378.50;;;20.45;77.97
13593;BME280;6867;50.998;4.250;2022-08-16T01:48:46;100372.81;;;20.41;77.83
13593;BME280;6867;50.998;4.250;2022-08-16T01:51:16;100365.47;;;20.36;77.61
13593;BME280;6867;50.998;4.250;2022-08-16T01:53:44;100360.88;;;20.27;77.40
13593;BME280;6867;50.998;4.250;2022-08-16T01:56:13;100357.94;;;20.23;77.90
13593;BME280;6867;50.998;4.250;2022-08-16T01:58:40;100355.50;;;20.17;77.82
13593;BME280;6867;50.998;4.250;2022-08-16T02:01:06;100362.34;;;20.09;78.00
13593;BME280;6867;50.998;4.250;2022-08-16T02:03:33;100357.22;;;20.02;78.02
13593;BME280;6867;50.998;4.250;2022-08-16T02:06:00;100363.78;;;19.96;78.57
13593;BME280;6867;50.998;4.250;2022-08-16T02:08:27;100370.63;;;19.88;78.71
13593;BME280;6867;50.998;4.250;2022-08-16T02:10:54;100374.44;;;19.87;78.70
13593;BME280;6867;50.998;4.250;2022-08-16T02:13:22;100371.16;;;19.85;78.57
13593;BME280;6867;50.998;4.250;2022-08-16T02:15:49;100372.00;;;19.81;78.61
13593;BME280;6867;50.998;4.250;2022-08-16T02:18:15;100372.84;;;19.76;78.76
13593;BME280;6867;50.998;4.250;2022-08-16T02:20:46;100379.41;;;19.75;78.89
13593;BME280;6867;50.998;4.250;2022-08-16T02:23:14;100368.47;;;19.80;78.79
13593;BME280;6867;50.998;4.250;2022-08-16T02:25:43;100372.78;;;19.92;78.07
13593;BME280;6867;50.998;4.250;2022-08-16T02:28:10;100375.56;;;19.86;78.07
13593;BME280;6867;50.998;4.250;2022-08-16T02:30:38;100383.22;;;19.74;78.65
13593;BME280;6867;50.998;4.250;2022-08-16T02:33:06;100385.66;;;19.60;78.91
13593;BME280;6867;50.998;4.250;2022-08-16T02:35:35;100380.81;;;19.62;79.43
13593;BME280;6867;50.998;4.250;2022-08-16T02:38:02;100382.72;;;19.62;79.27
13593;BME280;6867;50.998;4.250;2022-08-16T02:40:29;100377.53;;;19.65;78.98
13593;BME280;6867;50.998;4.250;2022-08-16T02:42:56;100378.34;;;19.66;78.88
13593;BME280;6867;50.998;4.250;2022-08-16T02:45:24;100376.69;;;19.60;78.69
13593;BME280;6867;50.998;4.250;2022-08-16T02:47:53;100372.63;;;19.62;78.93
13593;BME280;6867;50.998;4.250;2022-08-16T02:50:21;100374.81;;;19.65;78.51
13593;BME280;6867;50.998;4.250;2022-08-16T02:52:48;100380.50;;;19.64;77.98
13593;BME280;6867;50.998;4.250;2022-08-16T02:55:14;100376.16;;;19.68;78.18
13593;BME280;6867;50.998;4.250;2022-08-16T02:57:41;100366.63;;;19.65;78.21
13593;BME280;6867;50.998;4.250;2022-08-16T03:00:10;100367.16;;;19.68;78.14
13593;BME280;6867;50.998;4.250;2022-08-16T03:02:38;100376.72;;;19.65;78.34
13593;BME280;6867;50.998;4.250;2022-08-16T03:05:10;100367.19;;;19.62;78.35
13593;BME280;6867;50.998;4.250;2022-08-16T03:07:38;100367.44;;;19.56;78.22
13593;BME280;6867;50.998;4.250;2022-08-16T03:10:09;100366.38;;;19.57;78.12
13593;BME280;6867;50.998;4.250;2022-08-16T03:12:37;100371.56;;;19.48;78.33
13593;BME280;6867;50.998;4.250;2022-08-16T03:15:05;100368.31;;;19.41;78.37
13593;BME280;6867;50.998;4.250;2022-08-16T03:17:32;100374.00;;;19.39;78.63
13593;BME280;6867;50.998;4.250;2022-08-16T03:19:59;100362.88;;;19.36;78.30
13593;BME280;6867;50.998;4.250;2022-08-16T03:22:28;100369.16;;;19.31;78.14
13593;BME280;6867;50.998;4.250;2022-08-16T03:24:56;100372.41;;;19.28;78.41
13593;BME280;6867;50.998;4.250;2022-08-16T03:27:24;100371.31;;;19.34;78.46
13593;BME280;6867;50.998;4.250;2022-08-16T03:29:52;100368.31;;;19.36;78.67
13593;BME280;6867;50.998;4.250;2022-08-16T03:32:18;100380.56;;;19.38;78.48
13593;BME280;6867;50.998;4.250;2022-08-16T03:34:45;100375.09;;;19.49;78.88
13593;BME280;6867;50.998;4.250;2022-08-16T03:37:12;100373.44;;;19.58;78.52
13593;BME280;6867;50.998;4.250;2022-08-16T03:39:40;100379.16;;;19.51;78.93
13593;BME280;6867;50.998;4.250;2022-08-16T03:42:07;100384.88;;;19.55;78.66
13593;BME280;6867;50.998;4.250;2022-08-16T03:44:34;100382.16;;;19.55;78.79
13593;BME280;6867;50.998;4.250;2022-08-16T03:47:00;100385.44;;;19.57;79.01
13593;BME280;6867;50.998;4.250;2022-08-16T03:49:27;100383.53;;;19.57;78.74
13593;BME280;6867;50.998;4.250;2022-08-16T03:51:55;100379.19;;;19.61;78.96
13593;BME280;6867;50.998;4.250;2022-08-16T03:54:21;100376.69;;;19.60;78.67
13593;BME280;6867;50.998;4.250;2022-08-16T03:56:49;100384.34;;;19.53;79.24
13593;BME280;6867;50.998;4.250;2022-08-16T03:59:16;100385.41;;;19.52;79.09
13593;BME280;6867;50.998;4.250;2022-08-16T04:01:43;100382.97;;;19.50;79.24
13593;BME280;6867;50.998;4.250;2022-08-16T04:04:10;100376.47;;;19.46;79.20
13593;BME280;6867;50.998;4.250;2022-08-16T04:06:36;100395.25;;;19.42;79.14
13593;BME280;6867;50.998;4.250;2022-08-16T04:09:03;100389.00;;;19.37;79.53
13593;BME280;6867;50.998;4.250;2022-08-16T04:11:30;100389.03;;;19.22;79.56
13593;BME280;6867;50.998;4.250;2022-08-16T04:13:58;100388.19;;;19.26;79.46
13593;BME280;6867;50.998;4.250;2022-08-16T04:16:25;100382.47;;;19.23;79.51
13593;BME280;6867;50.998;4.250;2022-08-16T04:18:52;100382.50;;;19.17;79.32
13593;BME280;6867;50.998;4.250;2022-08-16T04:21:18;100398.00;;;19.17;79.32
13593;BME280;6867;50.998;4.250;2022-08-16T04:23:45;100394.22;;;19.13;79.48
13593;BME280;6867;50.998;4.250;2022-08-16T04:26:12;100397.50;;;19.15;79.60
13593;BME280;6867;50.998;4.250;2022-08-16T04:28:38;100394.50;;;19.11;79.34
13593;BME280;6867;50.998;4.250;2022-08-16T04:31:07;100393.13;;;19.09;79.36
13593;BME280;6867;50.998;4.250;2022-08-16T04:33:33;100397.47;;;19.10;79.51
13593;BME280;6867;50.998;4.250;2022-08-16T04:36:00;100400.75;;;19.12;79.40
13593;BME280;6867;50.998;4.250;2022-08-16T04:38:27;100399.13;;;19.16;79.31
13593;BME280;6867;50.998;4.250;2022-08-16T04:40:54;100394.75;;;19.20;79.10
13593;BME280;6867;50.998;4.250;2022-08-16T04:43:21;100401.28;;;19.29;79.23
13593;BME280;6867;50.998;4.250;2022-08-16T04:45:48;100411.09;;;19.35;79.21
13593;BME280;6867;50.998;4.250;2022-08-16T04:48:16;100414.84;;;19.50;78.95
13593;BME280;6867;50.998;4.250;2022-08-16T04:50:43;100422.47;;;19.63;78.80
13593;BME280;6867;50.998;4.250;2022-08-16T04:53:10;100416.75;;;19.75;78.50
13593;BME280;6867;50.998;4.250;2022-08-16T04:55:37;100414.22;;;19.88;78.00
13593;BME280;6867;50.998;4.250;2022-08-16T04:58:05;100407.63;;;20.05;77.15
13593;BME280;6867;50.998;4.250;2022-08-16T05:00:33;100396.94;;;20.13;76.47
13593;BME280;6867;50.998;4.250;2022-08-16T05:03:02;100390.13;;;20.16;75.88
13593;BME280;6867;50.998;4.250;2022-08-16T05:05:32;100392.78;;;20.26;75.68
13593;BME280;6867;50.998;4.250;2022-08-16T05:07:59;100394.41;;;20.32;75.24
13593;BME280;6867;50.998;4.250;2022-08-16T05:10:26;100398.50;;;20.30;75.16
13593;BME280;6867;50.998;4.250;2022-08-16T05:12:52;100400.97;;;20.26;74.95
13593;BME280;6867;50.998;4.250;2022-08-16T05:15:19;100396.84;;;20.34;74.82
13593;BME280;6867;50.998;4.250;2022-08-16T05:17:46;100400.94;;;20.36;74.88
13593;BME280;6867;50.998;4.250;2022-08-16T05:20:13;100394.88;;;20.50;74.67
13593;BME280;6867;50.998;4.250;2022-08-16T05:22:42;100400.84;;;20.57;74.62
13593;BME280;6867;50.998;4.250;2022-08-16T05:25:10;100404.34;;;20.62;74.49
13593;BME280;6867;50.998;4.250;2022-08-16T05:27:37;100407.59;;;20.64;74.37
13593;BME280;6867;50.998;4.250;2022-08-16T05:30:06;100409.75;;;20.68;74.68
13593;BME280;6867;50.998;4.250;2022-08-16T05:32:34;100418.19;;;20.71;74.61
13593;BME280;6867;50.998;4.250;2022-08-16T05:35:01;100421.94;;;20.80;74.63
13593;BME280;6867;50.998;4.250;2022-08-16T05:37:28;100418.09;;;20.81;74.35
13593;BME280;6867;50.998;4.250;2022-08-16T05:39:56;100432.31;;;20.83;74.63
13593;BME280;6867;50.998;4.250;2022-08-16T05:42:23;100425.69;;;20.89;74.70
13593;BME280;6867;50.998;4.250;2022-08-16T05:44:50;100427.00;;;20.97;74.40
13593;BME280;6867;50.998;4.250;2022-08-16T05:47:16;100424.47;;;21.11;73.99
13593;BME280;6867;50.998;4.250;2022-08-16T05:49:43;100427.94;;;21.17;73.62
13593;BME280;6867;50.998;4.250;2022-08-16T05:52:11;100434.13;;;21.32;73.50
13593;BME280;6867;50.998;4.250;2022-08-16T05:54:37;100436.19;;;21.46;72.87
13593;BME280;6867;50.998;4.250;2022-08-16T05:57:06;100437.06;;;21.65;72.53
13593;BME280;6867;50.998;4.250;2022-08-16T05:59:33;100434.53;;;21.74;71.96
13593;BME280;6867;50.998;4.250;2022-08-16T06:02:00;100431.34;;;21.91;71.45
13593;BME280;6867;50.998;4.250;2022-08-16T06:04:26;100420.03;;;21.97;70.95
13593;BME280;6867;50.998;4.250;2022-08-16T06:06:53;100432.53;;;22.27;70.46
13593;BME280;6867;50.998;4.250;2022-08-16T06:11:46;100411.25;;;22.62;68.76
13593;BME280;6867;50.998;4.250;2022-08-16T06:14:14;100417.97;;;22.70;68.58
13593;BME280;6867;50.998;4.250;2022-08-16T06:16:41;100400.00;;;22.63;67.95
13593;BME280;6867;50.998;4.250;2022-08-16T06:19:08;100407.31;;;22.87;67.01
13593;BME280;6867;50.998;4.250;2022-08-16T06:21:35;100392.34;;;22.98;66.55
13593;BME280;6867;50.998;4.250;2022-08-16T06:24:03;100387.44;;;23.14;66.11
13593;BME280;6867;50.998;4.250;2022-08-16T06:26:30;100387.50;;;23.42;65.34
13593;BME280;6867;50.998;4.250;2022-08-16T06:28:56;100377.88;;;23.58;64.63
13593;BME280;6867;50.998;4.250;2022-08-16T06:31:24;100380.50;;;23.49;64.69
13593;BME280;6867;50.998;4.250;2022-08-16T06:33:51;100384.66;;;23.60;64.43
13593;BME280;6867;50.998;4.250;2022-08-16T06:36:18;100378.97;;;23.43;64.44
13593;BME280;6867;50.998;4.250;2022-08-16T06:38:45;100378.84;;;23.48;63.78
13593;BME280;6867;50.998;4.250;2022-08-16T06:41:11;100357.16;;;23.66;63.26
13593;BME280;6867;50.998;4.250;2022-08-16T06:43:38;100358.38;;;23.87;62.22
13593;BME280;6867;50.998;4.250;2022-08-16T06:46:07;100345.84;;;24.08;61.97
13593;BME280;6867;50.998;4.250;2022-08-16T06:48:36;100355.00;;;24.04;62.02
13593;BME280;6867;50.998;4.250;2022-08-16T06:51:05;100352.66;;;24.11;61.14
13593;BME280;6867;50.998;4.250;2022-08-16T06:53:33;100358.31;;;24.15;61.72
13593;BME280;6867;50.998;4.250;2022-08-16T06:56:01;100352.19;;;24.31;60.96
13593;BME280;6867;50.998;4.250;2022-08-16T06:58:30;100345.69;;;24.27;60.45
13593;BME280;6867;50.998;4.250;2022-08-16T07:00:58;100360.53;;;24.40;60.81
13593;BME280;6867;50.998;4.250;2022-08-16T07:03:25;100358.28;;;24.42;60.13
13593;BME280;6867;50.998;4.250;2022-08-16T07:05:53;100338.00;;;24.74;59.51
13593;BME280;6867;50.998;4.250;2022-08-16T07:08:21;100329.56;;;24.93;59.12
13593;BME280;6867;50.998;4.250;2022-08-16T07:10:49;100347.63;;;24.63;59.57
13593;BME280;6867;50.998;4.250;2022-08-16T07:13:16;100344.84;;;25.08;58.96
13593;BME280;6867;50.998;4.250;2022-08-16T07:15:43;100326.94;;;25.11;58.48
13593;BME280;6867;50.998;4.250;2022-08-16T07:18:10;100327.34;;;25.26;58.04
13593;BME280;6867;50.998;4.250;2022-08-16T07:20:36;100300.66;;;25.27;57.02
13593;BME280;6867;50.998;4.250;2022-08-16T07:23:05;100316.25;;;25.49;56.74
13593;BME280;6867;50.998;4.250;2022-08-16T07:25:34;100314.81;;;25.43;56.71
13593;BME280;6867;50.998;4.250;2022-08-16T07:28:01;100296.34;;;26.00;55.54
13593;BME280;6867;50.998;4.250;2022-08-16T07:30:30;100304.44;;;26.14;55.29
13593;BME280;6867;50.998;4.250;2022-08-16T07:32:57;100274.97;;;26.58;53.51
13593;BME280;6867;50.998;4.250;2022-08-16T07:35:24;100254.47;;;26.85;52.56
13593;BME280;6867;50.998;4.250;2022-08-16T07:37:51;100281.78;;;26.52;53.24
13593;BME280;6867;50.998;4.250;2022-08-16T07:40:20;100259.78;;;26.99;51.79
13593;BME280;6867;50.998;4.250;2022-08-16T07:42:47;100251.81;;;27.06;51.15
13593;BME280;6867;50.998;4.250;2022-08-16T07:45:13;100235.75;;;27.67;49.53
13593;BME280;6867;50.998;4.250;2022-08-16T07:47:41;100210.13;;;28.09;47.92
13593;BME280;6867;50.998;4.250;2022-08-16T07:50:09;100191.44;;;28.26;47.19
13593;BME280;6867;50.998;4.250;2022-08-16T07:52:38;100222.56;;;28.81;46.92
13593;BME280;6867;50.998;4.250;2022-08-16T07:55:06;100201.00;;;28.87;46.14
13593;BME280;6867;50.998;4.250;2022-08-16T07:57:34;100223.41;;;29.06;45.53
13593;BME280;6867;50.998;4.250;2022-08-16T08:00:01;100209.56;;;28.94;45.52
13593;BME280;6867;50.998;4.250;2022-08-16T08:02:28;100194.56;;;28.83;45.06
13593;BME280;6867;50.998;4.250;2022-08-16T08:04:55;100205.84;;;28.65;44.80
13593;BME280;6867;50.998;4.250;2022-08-16T08:07:22;100230.25;;;27.88;46.27
13593;BME280;6867;50.998;4.250;2022-08-16T08:09:49;100217.66;;;28.20;45.69
13593;BME280;6867;50.998;4.250;2022-08-16T08:12:15;100226.81;;;28.78;45.30
13593;BME280;6867;50.998;4.250;2022-08-16T08:14:45;100224.66;;;29.33;44.18
13593;BME280;6867;50.998;4.250;2022-08-16T08:17:12;100234.84;;;29.94;43.73
13593;BME280;6867;50.998;4.250;2022-08-16T08:19:39;100220.53;;;29.27;43.74
13593;BME280;6867;50.998;4.250;2022-08-16T08:22:06;100257.84;;;29.21;45.20
13593;BME280;6867;50.998;4.250;2022-08-16T08:24:33;100217.28;;;29.13;43.49
13593;BME280;6867;50.998;4.250;2022-08-16T08:27:04;100197.97;;;29.77;42.49
13593;BME280;6867;50.998;4.250;2022-08-16T08:29:33;100197.94;;;29.90;41.90
13593;BME280;6867;50.998;4.250;2022-08-16T08:32:02;100195.06;;;29.86;41.60
13593;BME280;6867;50.998;4.250;2022-08-16T08:34:29;100188.97;;;29.81;41.39
13593;BME280;6867;50.998;4.250;2022-08-16T08:36:56;100203.41;;;30.30;41.30
13593;BME280;6867;50.998;4.250;2022-08-16T08:39:23;100202.69;;;30.61;40.98
13593;BME280;6867;50.998;4.250;2022-08-16T08:41:50;100172.28;;;30.49;40.20
13593;BME280;6867;50.998;4.250;2022-08-16T08:44:17;100167.88;;;30.32;40.02
13593;BME280;6867;50.998;4.250;2022-08-16T08:46:44;100151.09;;;30.57;39.26
13593;BME280;6867;50.998;4.250;2022-08-16T08:49:13;100159.94;;;30.62;39.16
13593;BME280;6867;50.998;4.250;2022-08-16T08:51:40;100178.38;;;30.86;38.98
13593;BME280;6867;50.998;4.250;2022-08-16T08:54:07;100188.47;;;31.10;39.31
13593;BME280;6867;50.998;4.250;2022-08-16T08:56:34;100205.81;;;31.23;38.92
13593;BME280;6867;50.998;4.250;2022-08-16T08:59:02;100224.41;;;31.22;39.39
13593;BME280;6867;50.998;4.250;2022-08-16T09:01:31;100203.41;;;31.06;38.32
13593;BME280;6867;50.998;4.250;2022-08-16T09:03:58;100204.97;;;31.38;38.21
13593;BME280;6867;50.998;4.250;2022-08-16T09:06:29;100206.78;;;31.31;37.90
13593;BME280;6867;50.998;4.250;2022-08-16T09:08:57;100205.25;;;31.68;37.25
13593;BME280;6867;50.998;4.250;2022-08-16T09:11:24;100205.56;;;32.41;36.52
13593;BME280;6867;50.998;4.250;2022-08-16T09:13:51;100212.94;;;32.33;36.47
13593;BME280;6867;50.998;4.250;2022-08-16T09:16:18;100201.91;;;32.17;36.04
13593;BME280;6867;50.998;4.250;2022-08-16T09:18:45;100238.09;;;31.82;36.76
13593;BME280;6867;50.998;4.250;2022-08-16T09:21:13;100222.19;;;32.60;35.13
13593;BME280;6867;50.998;4.250;2022-08-16T09:23:41;100216.16;;;32.78;35.07
13593;BME280;6867;50.998;4.250;2022-08-16T09:26:09;100243.03;;;32.93;35.47
13593;BME280;6867;50.998;4.250;2022-08-16T09:28:38;100228.19;;;33.08;35.20
13593;BME280;6867;50.998;4.250;2022-08-16T09:31:05;100204.84;;;33.43;33.31
13593;BME280;6867;50.998;4.250;2022-08-16T09:33:32;100182.47;;;32.83;33.15
13593;BME280;6867;50.998;4.250;2022-08-16T09:35:59;100220.47;;;32.75;34.24
13593;BME280;6867;50.998;4.250;2022-08-16T09:38:26;100159.13;;;32.41;32.71
13593;BME280;6867;50.998;4.250;2022-08-16T09:40:55;100239.66;;;31.64;35.46
13593;BME280;6867;50.998;4.250;2022-08-16T09:43:22;100239.19;;;31.97;34.78
13593;BME280;6867;50.998;4.250;2022-08-16T09:45:50;100222.75;;;32.69;33.24
13593;BME280;6867;50.998;4.250;2022-08-16T09:48:16;100230.44;;;31.95;34.85
13593;BME280;6867;50.998;4.250;2022-08-16T09:50:44;100251.56;;;32.19;34.74
13593;BME280;6867;50.998;4.250;2022-08-16T09:53:17;100232.69;;;31.89;34.60
13593;BME280;6867;50.998;4.250;2022-08-16T09:55:47;100281.03;;;32.04;35.41
13593;BME280;6867;50.998;4.250;2022-08-16T09:58:16;100231.28;;;32.57;33.95
13593;BME280;6867;50.998;4.250;2022-08-16T10:00:43;100234.59;;;32.43;34.04
13593;BME280;6867;50.998;4.250;2022-08-16T10:03:10;100234.00;;;32.34;33.75
13593;BME280;6867;50.998;4.250;2022-08-16T10:05:37;100235.31;;;32.02;34.28
13593;BME280;6867;50.998;4.250;2022-08-16T10:08:04;100225.81;;;32.41;33.26
13593;BME280;6867;50.998;4.250;2022-08-16T10:10:33;100220.66;;;32.86;32.63
13593;BME280;6867;50.998;4.250;2022-08-16T10:13:00;100196.44;;;32.40;32.40
13593;BME280;6867;50.998;4.250;2022-08-16T10:15:42;100210.25;;;32.17;33.28
13593;BME280;6867;50.998;4.250;2022-08-16T10:18:11;100189.63;;;32.18;32.14
13593;BME280;6867;50.998;4.250;2022-08-16T10:20:40;100204.69;;;31.79;32.87
13593;BME280;6867;50.998;4.250;2022-08-16T10:23:09;100193.19;;;31.61;32.20
13593;BME280;6867;50.998;4.250;2022-08-16T10:25:38;100231.63;;;31.59;33.42
13593;BME280;6867;50.998;4.250;2022-08-16T10:28:06;100202.19;;;31.73;32.30
13593;BME280;6867;50.998;4.250;2022-08-16T10:30:33;100213.88;;;31.63;32.67
13593;BME280;6867;50.998;4.250;2022-08-16T10:33:02;100226.56;;;31.64;33.39
13593;BME280;6867;50.998;4.250;2022-08-16T10:35:29;100248.63;;;31.57;33.79
13593;BME280;6867;50.998;4.250;2022-08-16T10:37:56;100254.84;;;31.35;34.18
13593;BME280;6867;50.998;4.250;2022-08-16T10:40:23;100257.84;;;31.61;33.79
13593;BME280;6867;50.998;4.250;2022-08-16T10:42:50;100257.56;;;32.21;33.20
13593;BME280;6867;50.998;4.250;2022-08-16T10:45:17;100255.22;;;32.04;33.33
13593;BME280;6867;50.998;4.250;2022-08-16T10:47:44;100253.97;;;32.20;33.10
13593;BME280;6867;50.998;4.250;2022-08-16T10:50:12;100250.84;;;32.64;32.34
13593;BME280;6867;50.998;4.250;2022-08-16T10:52:39;100229.47;;;32.45;31.76
13593;BME280;6867;50.998;4.250;2022-08-16T10:55:06;100259.81;;;32.54;32.09
13593;BME280;6867;50.998;4.250;2022-08-16T10:57:34;100249.88;;;32.14;32.68
13593;BME280;6867;50.998;4.250;2022-08-16T11:00:01;100267.53;;;33.07;32.07
13593;BME280;6867;50.998;4.250;2022-08-16T11:02:31;100248.41;;;33.85;30.13
13593;BME280;6867;50.998;4.250;2022-08-16T11:04:57;100249.31;;;33.92;30.16
13593;BME280;6867;50.998;4.250;2022-08-16T11:07:26;100244.78;;;33.81;30.65
13593;BME280;6867;50.998;4.250;2022-08-16T11:09:53;100226.06;;;32.56;31.19
13593;BME280;6867;50.998;4.250;2022-08-16T11:12:22;100242.00;;;33.51;30.77
13593;BME280;6867;50.998;4.250;2022-08-16T11:14:50;100218.53;;;33.52;30.29
13593;BME280;6867;50.998;4.250;2022-08-16T11:17:16;100233.22;;;34.09;29.41
13593;BME280;6867;50.998;4.250;2022-08-16T11:19:43;100236.34;;;33.74;29.78
13593;BME280;6867;50.998;4.250;2022-08-16T11:22:10;100226.81;;;33.44;29.42
13593;BME280;6867;50.998;4.250;2022-08-16T11:24:38;100244.88;;;33.58;29.74
13593;BME280;6867;50.998;4.250;2022-08-16T11:27:05;100245.13;;;33.76;29.62
13593;BME280;6867;50.998;4.250;2022-08-16T11:29:32;100243.38;;;33.64;29.85
13593;BME280;6867;50.998;4.250;2022-08-16T11:31:59;100250.56;;;33.95;29.63
13593;BME280;6867;50.998;4.250;2022-08-16T11:34:26;100253.69;;;33.93;29.43
13593;BME280;6867;50.998;4.250;2022-08-16T11:36:53;100264.78;;;34.50;29.02
13593;BME280;6867;50.998;4.250;2022-08-16T11:39:20;100253.34;;;34.62;29.42
13593;BME280;6867;50.998;4.250;2022-08-16T11:41:48;100257.63;;;34.53;29.10
13593;BME280;6867;50.998;4.250;2022-08-16T11:44:15;100249.38;;;35.04;28.27
13593;BME280;6867;50.998;4.250;2022-08-16T11:46:42;100263.09;;;33.82;30.15
13593;BME280;6867;50.998;4.250;2022-08-16T11:49:10;100271.19;;;34.54;29.61
13593;BME280;6867;50.998;4.250;2022-08-16T11:51:36;100263.38;;;34.33;29.18
13593;BME280;6867;50.998;4.250;2022-08-16T11:54:04;100280.31;;;34.17;29.15
13593;BME280;6867;50.998;4.250;2022-08-16T11:56:30;100270.28;;;34.47;29.15
13593;BME280;6867;50.998;4.250;2022-08-16T11:58:58;100288.72;;;34.21;29.85
13593;BME280;6867;50.998;4.250;2022-08-16T12:01:25;100285.72;;;34.07;29.53
13593;BME280;6867;50.998;4.250;2022-08-16T12:03:52;100310.63;;;34.23;30.18
13593;BME280;6867;50.998;4.250;2022-08-16T12:06:18;100283.25;;;34.65;28.45
13593;BME280;6867;50.998;4.250;2022-08-16T12:08:46;100297.50;;;34.57;29.55
13593;BME280;6867;50.998;4.250;2022-08-16T12:11:16;100285.47;;;34.90;28.50
13593;BME280;6867;50.998;4.250;2022-08-16T12:13:43;100269.09;;;34.85;28.50
13593;BME280;6867;50.998;4.250;2022-08-16T12:16:12;100283.13;;;34.92;28.29
13593;BME280;6867;50.998;4.250;2022-08-16T12:18:39;100249.97;;;34.83;27.98
13593;BME280;6867;50.998;4.250;2022-08-16T12:21:06;100249.50;;;34.74;28.29
13593;BME280;6867;50.998;4.250;2022-08-16T12:23:33;100258.50;;;34.60;28.62
13593;BME280;6867;50.998;4.250;2022-08-16T12:26:00;100246.22;;;34.68;28.09
13593;BME280;6867;50.998;4.250;2022-08-16T12:28:26;100256.66;;;34.75;28.13
13593;BME280;6867;50.998;4.250;2022-08-16T12:30:53;100264.94;;;34.31;29.14
13593;BME280;6867;50.998;4.250;2022-08-16T12:33:21;100276.25;;;34.11;29.05
13593;BME280;6867;50.998;4.250;2022-08-16T12:35:48;100267.81;;;34.75;28.04
13593;BME280;6867;50.998;4.250;2022-08-16T12:38:16;100262.81;;;34.95;27.91
13593;BME280;6867;50.998;4.250;2022-08-16T12:40:45;100246.50;;;34.97;27.50
13593;BME280;6867;50.998;4.250;2022-08-16T12:43:14;100237.47;;;35.14;27.20
13593;BME280;6867;50.998;4.250;2022-08-16T12:45:44;100258.63;;;35.15;28.15
13593;BME280;6867;50.998;4.250;2022-08-16T12:48:13;100251.75;;;35.54;27.15
13593;BME280;6867;50.998;4.250;2022-08-16T12:51:00;100263.69;;;34.99;28.81
13593;BME280;6867;50.998;4.250;2022-08-16T12:53:27;100271.28;;;35.50;28.25
13593;BME280;6867;50.998;4.250;2022-08-16T12:55:53;100238.22;;;35.04;27.98
13593;BME280;6867;50.998;4.250;2022-08-16T12:58:20;100244.03;;;35.40;27.22
13593;BME280;6867;50.998;4.250;2022-08-16T13:00:47;100264.69;;;35.87;27.47
13593;BME280;6867;50.998;4.250;2022-08-16T13:03:14;100245.47;;;35.75;27.43
13593;BME280;6867;50.998;4.250;2022-08-16T13:05:41;100242.59;;;35.60;27.51